Time;durP1;ratioP1;P1;durP2;ratioP2;P2;SDS_P1;SDS_P2;PMS_P1;PMS_P2;Temp;Humidity;BMP_temperature;BMP_pressure;BME280_temperature;BME280_humidity;BME280_pressure;Samples;Min_cycle;Max_cycle;Signal;HPM_P1;HPM_P2
2022/01/19 05:33:09;;;;;;;;;31.75;28.50;;;;;7.71;62.74;102441.91;5028619;28;45268;-76
2022/01/19 05:35:35;;;;;;;;;34.25;23.75;;;;;7.67;62.79;102440.16;5034745;28;45705;-74
2022/01/19 05:38:00;;;;;;;;;30.75;26.25;;;;;7.67;62.92;102440.16;5034716;28;45335;-74
2022/01/19 05:40:25;;;;;;;;;22.75;18.50;;;;;7.68;63.17;102446.38;5034802;28;45315;-74
2022/01/19 05:42:51;;;;;;;;;31.75;24.00;;;;;7.70;63.22;102439.25;5015991;28;45416;-74
2022/01/19 05:45:17;;;;;;;;;36.25;30.00;;;;;7.58;63.24;102433.09;5034654;28;46482;-74
2022/01/19 05:47:45;;;;;;;;;35.25;25.00;;;;;7.46;63.27;102411.84;5034702;28;45447;-73
2022/01/19 05:50:11;;;;;;;;;30.75;27.25;;;;;7.63;63.30;102430.41;5035175;28;45403;-74
2022/01/19 05:52:36;;;;;;;;;33.50;29.25;;;;;7.52;63.46;102418.91;5036292;28;45304;-73
2022/01/19 05:55:02;;;;;;;;;30.25;26.00;;;;;7.66;63.63;102435.69;5036792;28;45899;-72
2022/01/19 05:57:28;;;;;;;;;28.75;23.50;;;;;7.72;63.54;102434.78;5034260;28;45315;-74
2022/01/19 05:59:53;;;;;;;;;30.25;26.75;;;;;7.72;63.56;102432.13;5034636;28;45401;-75
2022/01/19 06:02:18;;;;;;;;;28.00;25.00;;;;;7.77;64.19;102438.31;5033996;28;45509;-75
2022/01/19 06:04:44;;;;;;;;;29.25;24.75;;;;;7.81;63.67;102435.63;5034185;28;45390;-73
2022/01/19 06:07:09;;;;;;;;;34.75;28.50;;;;;7.54;63.75;102385.97;5033519;28;45482;-73
2022/01/19 06:09:37;;;;;;;;;30.75;26.75;;;;;7.90;63.53;102432.88;5034425;28;45328;-73
2022/01/19 06:12:07;;;;;;;;;30.25;24.75;;;;;7.94;63.65;102426.59;5035376;28;45337;-74
2022/01/19 06:14:35;;;;;;;;;26.25;21.50;;;;;7.96;63.51;102437.28;5036151;28;45687;-77
2022/01/19 06:17:01;;;;;;;;;24.00;20.75;;;;;7.84;63.50;102419.56;5049383;28;45725;-79
2022/01/19 06:19:27;;;;;;;;;32.00;24.00;;;;;7.72;63.65;102398.31;5035108;28;45356;-78
2022/01/19 06:21:53;;;;;;;;;32.75;27.00;;;;;7.77;63.82;102408.94;5035422;28;45475;-78
2022/01/19 06:24:18;;;;;;;;;23.75;22.00;;;;;7.90;64.34;102426.66;5035522;28;45481;-76
2022/01/19 06:26:44;;;;;;;;;34.75;26.25;;;;;7.89;64.34;102408.84;5035733;28;45370;-75
2022/01/19 06:29:09;;;;;;;;;31.25;26.25;;;;;7.89;63.70;102411.53;5036114;28;45394;-74
2022/01/19 06:31:35;;;;;;;;;30.25;25.25;;;;;7.85;63.82;102415.97;5034585;28;45431;-75
2022/01/19 06:34:00;;;;;;;;;37.75;30.75;;;;;7.66;63.94;102411.69;5047139;28;45430;-76
2022/01/19 06:36:26;;;;;;;;;28.50;26.50;;;;;7.60;64.92;102417.97;5053953;28;45425;-72
2022/01/19 06:38:51;;;;;;;;;27.75;24.00;;;;;7.51;65.18;102411.78;5054352;28;45315;-74
2022/01/19 06:41:17;;;;;;;;;31.25;27.75;;;;;7.46;65.72;102417.19;5054074;28;45358;-75
2022/01/19 06:43:43;;;;;;;;;33.25;29.75;;;;;7.29;65.31;102394.16;5054439;28;45407;-76
2022/01/19 06:46:09;;;;;;;;;41.75;33.75;;;;;7.46;66.32;102426.97;5054290;28;45390;-77
2022/01/19 06:48:34;;;;;;;;;46.50;31.25;;;;;7.42;66.69;102423.41;5054594;28;45452;-78
2022/01/19 06:50:59;;;;;;;;;32.50;28.25;;;;;7.38;66.24;102413.66;5056874;28;45314;-77
2022/01/19 06:53:26;;;;;;;;;40.75;34.00;;;;;7.34;66.61;102414.56;5053795;28;45378;-74
2022/01/19 06:55:54;;;;;;;;;37.00;36.25;;;;;7.26;67.46;102412.84;5057408;28;45339;-74
2022/01/19 06:58:19;;;;;;;;;47.75;35.25;;;;;7.29;67.57;102413.72;5057645;28;45426;-76
2022/01/19 07:00:45;;;;;;;;;39.75;35.75;;;;;7.31;67.13;102416.38;5057003;28;45339;-76
2022/01/19 07:03:11;;;;;;;;;41.00;33.25;;;;;7.26;67.65;102416.38;5056978;28;45458;-80
2022/01/19 07:05:37;;;;;;;;;42.50;37.00;;;;;7.21;67.84;102407.53;5039091;28;46244;-78
2022/01/19 07:08:02;;;;;;;;;33.25;30.50;;;;;7.11;68.18;102390.69;5055915;28;45484;-79
2022/01/19 07:10:31;;;;;;;;;39.00;36.00;;;;;7.07;68.43;102388.03;5058070;28;45536;-79
2022/01/19 07:12:58;;;;;;;;;34.75;32.00;;;;;7.16;68.02;102407.56;5041936;28;48308;-79
2022/01/19 07:15:24;;;;;;;;;40.50;32.25;;;;;7.21;68.00;102420.88;5040261;28;45269;-80
2022/01/19 07:17:49;;;;;;;;;52.50;37.75;;;;;6.96;69.24;102381.91;5056202;28;45327;-80
2022/01/19 07:20:14;;;;;;;;;46.50;39.75;;;;;7.15;69.10;102416.44;5057161;28;45426;-80
2022/01/19 07:22:40;;;;;;;;;35.00;23.75;;;;;6.88;68.97;102378.38;5056700;28;45628;-79
2022/01/19 07:25:05;;;;;;;;;42.25;38.25;;;;;6.74;69.79;102360.66;5038476;28;45555;-81
2022/01/19 07:27:31;;;;;;;;;48.50;40.50;;;;;7.00;68.93;102402.31;5057158;28;45476;-80
2022/01/19 07:29:56;;;;;;;;;39.25;35.50;;;;;6.91;69.17;102397.91;5056215;28;45398;-79
2022/01/19 07:32:24;;;;;;;;;44.25;36.00;;;;;6.93;69.56;102380.13;5056624;28;46179;-79
2022/01/19 07:34:49;;;;;;;;;42.00;38.25;;;;;7.20;69.75;102435.09;5056817;28;45383;-80
2022/01/19 07:37:15;;;;;;;;;40.25;35.50;;;;;7.19;69.43;102434.22;5056887;28;45290;-80
2022/01/19 07:39:40;;;;;;;;;48.50;36.75;;;;;7.13;69.60;102428.03;5039162;28;46071;-80
2022/01/19 07:42:06;;;;;;;;;44.75;36.75;;;;;6.98;69.58;102394.31;5040083;28;48068;-78
2022/01/19 07:44:32;;;;;;;;;37.00;31.50;;;;;6.90;69.53;102361.47;5039890;28;45522;-79
2022/01/19 07:46:57;;;;;;;;;56.50;38.50;;;;;7.23;69.52;102416.41;5040175;28;45375;-81
2022/01/19 07:49:23;;;;;;;;;44.50;38.25;;;;;7.20;69.27;102401.31;5057896;28;45289;-81
2022/01/19 07:51:49;;;;;;;;;43.75;36.50;;;;;7.11;68.67;102385.38;5058302;28;46717;-80
2022/01/19 07:54:14;;;;;;;;;46.00;35.50;;;;;7.35;68.87;102431.47;5038870;28;45449;-81
2022/01/19 07:56:40;;;;;;;;;38.75;34.50;;;;;7.38;68.77;102435.00;5038568;28;45387;-80
2022/01/19 07:59:05;;;;;;;;;33.00;30.50;;;;;7.34;68.98;102429.69;5056402;28;45538;-79
2022/01/19 08:01:31;;;;;;;;;45.50;35.25;;;;;7.05;69.02;102385.41;5037700;28;46801;-79
2022/01/19 08:03:59;;;;;;;;;39.75;32.75;;;;;7.39;68.99;102439.47;5055713;28;45470;-79
2022/01/19 08:06:25;;;;;;;;;38.25;33.50;;;;;7.30;69.22;102428.84;5055816;28;45481;-80
2022/01/19 08:08:50;;;;;;;;;38.25;28.50;;;;;7.31;69.33;102419.06;5054956;28;45505;-78
2022/01/19 08:11:15;;;;;;;;;44.00;29.50;;;;;7.07;69.10;102370.25;5055832;28;46528;-80
2022/01/19 08:13:41;;;;;;;;;32.50;26.00;;;;;7.16;69.12;102391.53;5038467;28;45277;-79
2022/01/19 08:16:06;;;;;;;;;33.75;28.00;;;;;7.08;69.12;102385.38;5055263;28;45326;-79
2022/01/19 08:18:32;;;;;;;;;34.50;27.75;;;;;7.07;69.11;102372.94;5055670;28;45539;-80
2022/01/19 08:20:57;;;;;;;;;36.50;33.50;;;;;7.45;69.28;102434.06;5037629;28;48330;-78
2022/01/19 08:23:22;;;;;;;;;31.00;27.25;;;;;7.38;68.92;102434.13;5056027;28;45359;-80
2022/01/19 08:25:48;;;;;;;;;32.00;26.75;;;;;7.42;69.26;102439.41;5057888;28;45362;-80
2022/01/19 08:28:13;;;;;;;;;32.50;28.25;;;;;7.26;69.40;102420.84;5059661;28;45522;-79
2022/01/19 08:30:39;;;;;;;;;30.00;25.25;;;;;7.32;69.72;102435.03;5057427;28;46041;-78
2022/01/19 08:33:04;;;;;;;;;35.00;29.25;;;;;7.19;69.29;102404.88;5055916;28;45534;-80
2022/01/19 08:35:30;;;;;;;;;34.75;30.50;;;;;7.17;69.20;102411.09;5055659;28;45425;-79
2022/01/19 08:37:55;;;;;;;;;32.00;28.75;;;;;7.45;68.93;102458.09;5055497;28;45528;-80
2022/01/19 08:40:26;;;;;;;;;42.75;34.00;;;;;7.20;69.22;102424.44;5054068;28;46235;-79
2022/01/19 08:42:53;;;;;;;;;31.75;26.75;;;;;7.41;68.74;102450.97;5055989;28;45307;-81
2022/01/19 08:45:18;;;;;;;;;25.25;17.75;;;;;7.52;68.71;102453.59;5055547;28;45519;-81
2022/01/19 08:47:44;;;;;;;;;32.50;29.50;;;;;7.39;68.57;102436.78;5037544;28;46341;-80
2022/01/19 08:50:12;;;;;;;;;9.00;8.75;;;;;7.39;69.24;102434.13;5055861;28;45997;-79
2022/01/19 08:52:37;;;;;;;;;34.75;31.25;;;;;7.57;68.38;102458.00;5037352;28;45823;-78
2022/01/19 08:55:04;;;;;;;;;43.00;30.50;;;;;7.52;68.79;102456.25;5055924;28;45339;-80
2022/01/19 08:57:29;;;;;;;;;47.75;36.25;;;;;7.38;68.78;102436.78;5054855;28;45613;-80
2022/01/19 08:59:55;;;;;;;;;40.00;32.50;;;;;7.40;68.78;102449.19;5055345;28;45570;-78
2022/01/19 09:02:20;;;;;;;;;43.75;30.75;;;;;7.36;68.61;102443.91;5056174;28;45508;-79
2022/01/19 09:04:46;;;;;;;;;34.25;30.50;;;;;7.53;68.83;102480.28;5058396;28;45386;-78
2022/01/19 09:07:12;;;;;;;;;29.75;28.25;;;;;7.37;68.82;102461.69;5040482;28;47021;-77
2022/01/19 09:09:37;;;;;;;;;46.50;31.75;;;;;7.25;69.27;102437.72;5055391;28;45586;-80
2022/01/19 09:12:03;;;;;;;;;35.25;32.00;;;;;7.53;68.98;102482.06;5055420;28;45237;-78
2022/01/19 09:14:30;;;;;;;;;39.00;30.50;;;;;7.36;68.97;102443.91;5054340;28;45464;-80
2022/01/19 09:16:56;;;;;;;;;31.25;25.50;;;;;7.19;69.13;102417.31;5037872;28;46861;-79
2022/01/19 09:19:21;;;;;;;;;43.25;31.25;;;;;7.10;68.53;102402.25;5072258;28;47411;-79
2022/01/19 09:21:49;;;;;;;;;35.50;28.75;;;;;7.62;68.41;102481.13;5056232;28;45259;-79
2022/01/19 09:24:15;;;;;;;;;34.50;28.75;;;;;7.60;68.77;102489.13;5037479;28;45418;-80
2022/01/19 09:26:40;;;;;;;;;47.75;35.00;;;;;7.54;68.94;102489.19;5055299;28;45415;-80
2022/01/19 09:29:06;;;;;;;;;43.00;33.25;;;;;7.46;68.76;102483.00;5055329;28;46341;-79
2022/01/19 09:31:33;;;;;;;;;29.25;27.25;;;;;7.22;68.85;102431.53;5036047;28;45520;-80
2022/01/19 09:34:08;;;;;;;;;38.75;32.00;;;;;7.38;69.15;102469.69;5037122;28;45253;-80
2022/01/19 09:36:36;;;;;;;;;29.25;23.75;;;;;7.33;68.73;102463.47;5056517;28;45559;-79
2022/01/19 09:39:05;;;;;;;;;36.25;30.25;;;;;7.53;68.26;102492.75;5054836;28;46104;-80
2022/01/19 09:41:31;;;;;;;;;40.25;32.00;;;;;7.51;68.61;102490.06;5055369;28;45260;-79
2022/01/19 09:43:57;;;;;;;;;31.50;27.00;;;;;7.25;68.19;102443.97;5040322;28;45410;-78
2022/01/19 09:46:24;;;;;;;;;43.00;33.50;;;;;7.48;68.78;102495.44;5057452;28;45536;-79
2022/01/19 09:48:49;;;;;;;;;41.50;30.25;;;;;7.35;68.46;102459.03;5053288;28;47260;-78
2022/01/19 09:51:15;;;;;;;;;42.00;31.75;;;;;7.59;68.03;102498.91;5054622;28;45260;-81
2022/01/19 09:53:41;;;;;;;;;52.50;34.00;;;;;7.33;68.65;102459.91;5054953;28;45358;-81
2022/01/19 09:56:08;;;;;;;;;45.75;32.50;;;;;7.30;68.33;102449.28;5035460;28;46474;-78
2022/01/19 09:58:33;;;;;;;;;33.00;32.25;;;;;7.58;68.29;102489.13;5035354;28;46520;-77
2022/01/19 10:00:59;;;;;;;;;35.00;31.50;;;;;7.12;68.53;102402.25;5054110;28;45383;-77
2022/01/19 10:03:30;;;;;;;;;28.75;25.75;;;;;7.59;68.15;102474.91;5055417;28;45339;-78
2022/01/19 10:06:05;;;;;;;;;34.25;29.75;;;;;7.62;67.69;102479.34;5054076;28;45499;-80
2022/01/19 10:08:44;;;;;;;;;38.75;29.75;;;;;7.60;68.05;102474.00;5054270;28;46038;-79
2022/01/19 10:16:59;;;;;;;;;33.50;27.25;;;;;7.49;68.15;102467.84;5053973;28;45597;-80
2022/01/19 10:19:27;;;;;;;;;40.75;34.00;;;;;7.40;68.56;102457.22;5054671;28;46044;-80
2022/01/19 10:22:09;;;;;;;;;39.50;29.00;;;;;7.63;68.64;102482.91;5054527;28;45375;-78
2022/01/19 10:24:48;;;;;;;;;38.25;37.00;;;;;7.31;68.61;102433.28;5058391;28;45239;-81
2022/01/19 10:27:33;;;;;;;;;55.00;38.25;;;;;7.62;68.76;102491.78;5037664;28;46174;-80
2022/01/19 10:30:02;;;;;;;;;53.25;38.25;;;;;7.59;69.04;102484.69;5035427;28;47408;-78
2022/01/19 10:32:29;;;;;;;;;41.00;35.25;;;;;7.56;69.58;102487.41;5055092;28;45526;-79
2022/01/19 10:34:54;;;;;;;;;50.75;37.25;;;;;7.38;69.63;102464.38;5056879;28;45253;-79
2022/01/19 10:37:24;;;;;;;;;41.00;37.50;;;;;7.41;69.10;102469.66;5057213;28;45332;-79
2022/01/19 10:39:51;;;;;;;;;54.00;41.50;;;;;7.43;69.79;102464.31;5057463;28;46697;-79
2022/01/19 10:42:35;;;;;;;;;47.50;37.75;;;;;7.49;69.56;102459.81;5057849;28;45549;-78
2022/01/19 10:45:05;;;;;;;;;51.00;38.75;;;;;7.59;69.39;102460.66;5056266;28;45714;-80
2022/01/19 10:47:45;;;;;;;;;56.00;40.25;;;;;7.70;68.90;102482.84;5057331;28;45647;-79
2022/01/19 10:50:21;;;;;;;;;50.75;39.75;;;;;7.65;69.37;102483.78;5057055;28;46547;-80
2022/01/19 10:52:46;;;;;;;;;55.75;41.50;;;;;7.23;69.50;102406.63;5057346;28;45520;-80
2022/01/19 10:55:38;;;;;;;;;42.25;37.00;;;;;7.66;68.97;102462.38;5039041;28;45486;-78
2022/01/19 10:58:09;;;;;;;;;57.00;43.00;;;;;7.63;68.93;102438.41;5057508;28;45183;-79
2022/01/19 11:00:36;;;;;;;;;55.25;41.50;;;;;7.44;68.76;102394.06;5058070;28;45468;-80
2022/01/19 11:03:20;;;;;;;;;53.50;37.75;;;;;7.88;68.61;102474.72;5041798;28;45295;-79
2022/01/19 11:05:56;;;;;;;;;30.25;15.75;;;;;7.82;68.71;102469.44;5057942;28;45486;-79
2022/01/19 11:08:23;;;;;;;;;59.00;47.00;;;;;7.59;69.38;102425.97;5057403;28;45461;-78
2022/01/19 11:10:52;;;;;;;;;59.50;45.25;;;;;7.66;68.93;102425.03;5057740;28;46019;-77
2022/01/19 11:13:32;;;;;;;;;54.25;46.75;;;;;7.86;69.19;102460.47;5058547;28;45305;-77
2022/01/19 11:16:00;;;;;;;;;51.25;42.75;;;;;7.85;68.97;102464.03;5057382;28;45386;-78
2022/01/19 11:18:29;;;;;;;;;57.00;46.00;;;;;7.83;69.15;102463.16;5039038;28;45513;-76
2022/01/19 11:20:57;;;;;;;;;56.25;46.50;;;;;7.81;69.14;102464.09;5057372;28;45371;-84
2022/01/19 11:23:41;;;;;;;;;57.75;45.25;;;;;7.79;69.68;102450.75;5056828;28;45589;-78
2022/01/19 11:26:12;;;;;;;;;57.50;45.75;;;;;7.56;69.64;102426.91;5057165;28;45589;-77
2022/01/19 11:28:44;;;;;;;;;70.67;47.33;;;;;7.67;69.77;102456.16;5039053;28;45448;-76
2022/01/19 11:31:14;;;;;;;;;49.00;44.00;;;;;7.62;70.19;102449.97;5058112;28;46263;-73
2022/01/19 11:33:44;;;;;;;;;61.00;47.75;;;;;7.60;70.18;102447.31;5068248;28;45412;-74
2022/01/19 11:36:22;;;;;;;;;61.25;47.50;;;;;7.55;70.53;102441.13;5057009;28;45550;-80
2022/01/19 11:39:14;;;;;;;;;57.25;44.00;;;;;7.46;70.91;102422.50;5057061;28;45589;-74
2022/01/19 11:42:19;;;;;;;;;61.25;44.50;;;;;7.56;71.11;102432.22;5053823;28;46177;-75
2022/01/19 11:44:44;;;;;;;;;57.50;43.00;;;;;7.49;70.96;102403.78;5047414;28;45330;-77
2022/01/19 11:47:11;;;;;;;;;58.50;42.00;;;;;7.67;70.78;102434.81;5056705;28;45296;-74
2022/01/19 11:49:56;;;;;;;;;62.50;43.50;;;;;7.50;71.43;102426.91;5056331;28;45339;-75
2022/01/19 11:52:27;;;;;;;;;57.25;44.25;;;;;7.52;71.73;102418.91;5056390;28;46303;-74
2022/01/19 11:55:12;;;;;;;;;53.75;42.00;;;;;7.59;71.32;102424.19;5056735;28;45510;-76
2022/01/19 11:57:40;;;;;;;;;59.50;43.25;;;;;7.54;71.48;102411.78;5056841;28;45597;-74
2022/01/19 12:00:14;;;;;;;;;53.75;41.25;;;;;7.54;71.40;102403.78;5056472;28;45553;-75
2022/01/19 12:02:51;;;;;;;;;50.00;39.00;;;;;7.56;71.16;102410.88;5056531;28;46010;-78
2022/01/19 12:05:24;;;;;;;;;35.50;30.25;;;;;7.57;70.75;102409.97;5038457;28;45312;-77
2022/01/19 12:07:53;;;;;;;;;45.25;39.25;;;;;7.69;70.36;102413.44;5056354;28;45292;-75
2022/01/19 12:10:31;;;;;;;;;43.00;37.25;;;;;7.71;70.25;102404.53;5056525;28;45492;-73
2022/01/19 12:13:31;;;;;;;;;60.25;45.00;;;;;7.70;71.22;102402.75;5056219;28;46171;-70
2022/01/19 12:16:06;;;;;;;;;52.50;39.50;;;;;7.69;70.63;102387.63;5056199;28;45325;-71
2022/01/19 12:18:53;;;;;;;;;37.75;34.25;;;;;7.78;70.54;102394.69;5056811;28;45373;-71
2022/01/19 12:21:21;;;;;;;;;43.50;34.50;;;;;7.76;69.70;102385.81;5065516;28;45518;-70
2022/01/19 12:23:49;;;;;;;;;41.50;36.50;;;;;7.78;69.44;102376.00;5050093;28;45622;-73
2022/01/19 12:26:15;;;;;;;;;33.25;29.00;;;;;7.74;69.71;102374.28;5062014;28;45531;-74
2022/01/19 12:28:43;;;;;;;;;41.50;36.25;;;;;7.76;69.70;102383.13;5055576;28;45338;-75
2022/01/19 12:31:23;;;;;;;;;33.25;29.00;;;;;7.72;70.12;102387.63;5055521;28;45421;-75
2022/01/19 12:34:07;;;;;;;;;33.25;27.00;;;;;7.65;70.23;102383.25;5055779;28;45331;-72
2022/01/19 12:36:55;;;;;;;;;32.00;28.75;;;;;7.64;70.25;102380.56;5055702;28;45307;-73
2022/01/19 12:39:27;;;;;;;;;36.25;33.00;;;;;7.71;70.22;102388.53;5055459;28;47078;-72
2022/01/19 12:41:59;;;;;;;;;36.00;28.50;;;;;7.77;69.95;102380.47;5055796;28;45455;-72
2022/01/19 12:44:42;;;;;;;;;32.00;27.25;;;;;7.83;69.77;102379.50;5055632;28;45371;-74
2022/01/19 12:47:28;;;;;;;;;33.00;28.50;;;;;7.87;69.41;102375.94;5055713;28;45406;-76
2022/01/19 12:50:03;;;;;;;;;27.50;26.25;;;;;7.96;69.33;102370.50;5056106;28;45342;-73
2022/01/19 12:52:30;;;;;;;;;37.25;29.75;;;;;8.03;68.99;102360.66;5036077;28;47681;-74
2022/01/19 12:55:00;;;;;;;;;28.25;27.25;;;;;7.98;68.72;102358.91;5055132;28;46395;-72
2022/01/19 12:57:29;;;;;;;;;28.25;26.25;;;;;7.81;68.84;102334.16;5055447;28;45389;-74
2022/01/19 12:59:55;;;;;;;;;31.00;25.25;;;;;7.79;69.34;102361.75;5037566;28;45581;-74
2022/01/19 13:02:28;;;;;;;;;33.00;25.25;;;;;7.79;69.65;102354.63;5055424;28;45469;-74
2022/01/19 13:05:13;;;;;;;;;31.75;26.25;;;;;7.80;69.28;102345.72;5055506;28;46117;-73
2022/01/19 13:07:44;;;;;;;;;29.00;25.50;;;;;7.87;69.69;102335.88;5055294;28;45344;-73
2022/01/19 13:10:24;;;;;;;;;26.25;24.50;;;;;7.91;69.01;102343.81;5055339;28;45366;-73
2022/01/19 13:15:23;;;;;;;;;30.25;24.50;;;;;7.89;68.92;102339.41;5054593;28;45354;-73
2022/01/19 13:17:52;;;;;;;;;26.75;23.75;;;;;7.93;68.64;102338.47;5054953;28;45398;-72
2022/01/19 13:20:23;;;;;;;;;26.75;24.00;;;;;7.95;68.77;102350.94;5070956;28;45372;-73
2022/01/19 13:22:53;;;;;;;;;27.50;24.75;;;;;8.03;68.58;102348.19;5055205;28;45390;-72
2022/01/19 13:25:31;;;;;;;;;31.75;24.00;;;;;8.06;67.95;102344.59;5055291;28;45458;-72
2022/01/19 13:27:59;;;;;;;;;30.75;26.00;;;;;8.01;68.16;102357.09;5054988;28;45529;-74
2022/01/19 13:30:27;;;;;;;;;29.50;24.25;;;;;8.00;68.10;102358.88;5055317;28;45391;-74
2022/01/19 13:32:53;;;;;;;;;18.00;18.00;;;;;7.96;68.65;102360.72;5054860;28;45334;-74
2022/01/19 13:35:21;;;;;;;;;34.50;26.00;;;;;7.96;68.19;102358.03;5055074;28;46125;-73
2022/01/19 13:37:56;;;;;;;;;22.25;18.25;;;;;7.86;68.61;102351.00;5055151;28;45418;-74
2022/01/19 13:40:27;;;;;;;;;28.50;26.25;;;;;7.62;68.50;102324.53;5055433;28;45260;-72
2022/01/19 13:42:59;;;;;;;;;24.25;23.00;;;;;7.71;68.98;102334.25;5054896;28;45923;-74
2022/01/19 13:48:50;;;;;;;;;33.00;26.50;;;;;7.75;69.18;102342.19;5054760;28;45374;-72
2022/01/19 13:50:53;;;;;;;;;26.75;23.00;;;;;7.80;69.25;102331.50;5043944;28;45607;-73
2022/01/19 13:53:32;;;;;;;;;26.50;22.00;;;;;7.75;69.58;102333.31;5054725;28;45339;-74
2022/01/19 13:56:00;;;;;;;;;30.75;22.50;;;;;7.83;70.38;102336.78;5054583;28;45205;-74
2022/01/19 13:58:34;;;;;;;;;37.00;31.75;;;;;7.94;70.67;102333.13;5054921;28;45545;-74
2022/01/19 14:01:04;;;;;;;;;36.25;25.25;;;;;7.83;71.16;102305.63;5054815;28;45315;-73
2022/01/19 14:03:48;;;;;;;;;31.00;21.75;;;;;7.99;71.03;102333.09;5054287;28;45362;-72
2022/01/19 14:06:26;;;;;;;;;32.50;25.75;;;;;7.85;72.02;102311.84;5055594;28;45433;-73
2022/01/19 14:09:05;;;;;;;;;24.50;22.75;;;;;7.95;71.89;102316.22;5054815;28;45522;-73
2022/01/19 14:11:32;;;;;;;;;26.25;24.50;;;;;7.95;72.08;102309.97;5054539;28;45505;-74
2022/01/19 14:14:06;;;;;;;;;33.50;20.25;;;;;7.99;72.28;102320.59;5054604;28;45423;-73
2022/01/19 14:16:37;;;;;;;;;22.00;21.75;;;;;7.94;72.08;102318.88;5053902;28;46204;-73
2022/01/19 14:19:05;;;;;;;;;27.75;23.00;;;;;7.99;71.92;102309.06;5054226;28;45525;-72
2022/01/19 14:21:31;;;;;;;;;26.50;22.50;;;;;8.05;71.93;102302.75;5054522;28;45416;-73
2022/01/19 14:23:58;;;;;;;;;34.50;24.75;;;;;8.07;71.99;102287.63;5054420;28;45409;-74
2022/01/19 14:26:24;;;;;;;;;18.25;15.50;;;;;8.05;71.55;102282.28;5053470;28;46205;-73
2022/01/19 14:29:14;;;;;;;;;25.75;23.00;;;;;8.09;71.75;102280.44;5036096;28;45363;-72
2022/01/19 14:31:51;;;;;;;;;29.25;22.75;;;;;8.18;71.33;102286.56;5053896;28;45343;-72
2022/01/19 14:34:35;;;;;;;;;28.50;21.25;;;;;8.16;70.95;102290.19;5052933;28;45575;-72
2022/01/19 14:37:09;;;;;;;;;18.50;17.50;;;;;8.11;71.21;102267.97;5053995;28;46520;-74
2022/01/19 14:39:54;;;;;;;;;27.00;24.50;;;;;8.25;70.37;102293.59;5053551;28;45486;-73
2022/01/19 14:42:26;;;;;;;;;26.00;25.50;;;;;8.29;70.58;102279.31;5052207;28;45503;-74
2022/01/19 14:45:02;;;;;;;;;24.75;19.25;;;;;8.36;69.89;102274.81;5052195;28;45564;-74
2022/01/19 14:47:38;;;;;;;;;34.75;21.50;;;;;8.32;69.76;102270.44;5034523;28;47345;-72
2022/01/19 14:50:19;;;;;;;;;17.75;17.00;;;;;8.16;70.11;102274.16;5053422;28;45430;-73
2022/01/19 14:52:44;;;;;;;;;24.50;23.25;;;;;8.15;70.56;102283.97;5052436;28;45513;-73
2022/01/19 14:55:09;;;;;;;;;24.75;24.00;;;;;8.09;70.17;102276.00;5066044;28;45394;-74
2022/01/19 14:57:35;;;;;;;;;24.75;21.75;;;;;8.13;70.79;102269.72;5054528;28;45335;-73
2022/01/19 15:00:03;;;;;;;;;33.25;22.25;;;;;8.08;71.06;102268.03;5054085;28;45358;-73
2022/01/19 15:02:29;;;;;;;;;20.75;19.75;;;;;7.98;71.33;102257.44;5053407;28;45352;-73
2022/01/19 15:04:54;;;;;;;;;24.00;22.50;;;;;7.99;70.83;102243.16;5053875;28;45415;-74
2022/01/19 15:07:20;;;;;;;;;32.50;25.00;;;;;8.09;70.73;102267.97;5053070;28;46324;-73
2022/01/19 15:09:45;;;;;;;;;20.75;20.75;;;;;8.11;70.46;102262.63;5053275;28;45404;-72
2022/01/19 15:12:10;;;;;;;;;29.75;25.50;;;;;8.04;70.66;102242.22;5053584;28;45435;-73
2022/01/19 15:14:36;;;;;;;;;28.00;23.75;;;;;7.97;70.86;102222.72;5053529;28;45574;-73
2022/01/19 15:17:02;;;;;;;;;28.75;26.50;;;;;7.82;71.31;102202.44;5056884;28;45316;-73
2022/01/19 15:19:27;;;;;;;;;33.00;24.00;;;;;7.85;70.95;102210.38;5057184;28;45388;-72
2022/01/19 15:21:53;;;;;;;;;30.50;22.25;;;;;7.92;70.81;102225.44;5056982;28;45472;-73
2022/01/19 15:24:18;;;;;;;;;27.50;23.75;;;;;7.84;70.82;102205.94;5056851;28;45520;-73
2022/01/19 15:26:46;;;;;;;;;25.50;23.00;;;;;7.64;70.83;102189.28;5056864;28;46030;-73
2022/01/19 15:29:13;;;;;;;;;22.50;20.50;;;;;7.76;71.10;102231.84;5057117;28;45401;-72
2022/01/19 15:31:38;;;;;;;;;37.75;28.00;;;;;7.75;71.39;102227.41;5038603;28;45313;-73
2022/01/19 15:34:04;;;;;;;;;30.00;22.75;;;;;7.76;71.08;102237.19;5057299;28;45589;-73
2022/01/19 15:36:29;;;;;;;;;29.50;24.25;;;;;7.82;71.32;102230.91;5056820;28;46403;-72
2022/01/19 15:38:55;;;;;;;;;30.00;22.50;;;;;7.83;71.11;102240.66;5057068;28;45300;-73
2022/01/19 15:41:20;;;;;;;;;25.75;20.50;;;;;7.83;70.92;102241.56;5056786;28;45173;-73
2022/01/19 15:43:46;;;;;;;;;28.00;24.75;;;;;7.75;70.77;102240.75;5056591;28;45344;-72
2022/01/19 15:46:12;;;;;;;;;30.00;26.75;;;;;7.80;71.22;102227.38;5056341;28;45985;-73
2022/01/19 15:48:38;;;;;;;;;26.75;21.50;;;;;7.81;70.49;102231.81;5038534;28;45427;-73
2022/01/19 15:51:03;;;;;;;;;27.25;21.50;;;;;7.72;70.55;102208.78;5056249;28;45434;-72
2022/01/19 15:53:30;;;;;;;;;34.25;25.00;;;;;7.78;70.62;102223.81;5056288;28;45470;-76
2022/01/19 15:55:57;;;;;;;;;30.75;25.00;;;;;7.87;70.78;102243.31;5056452;28;45489;-73
2022/01/19 15:58:23;;;;;;;;;33.00;23.25;;;;;7.89;70.25;102238.84;5056402;28;45228;-74
2022/01/19 16:00:51;;;;;;;;;30.50;26.75;;;;;7.78;70.35;102230.06;5056387;28;45395;-73
2022/01/19 16:03:17;;;;;;;;;33.75;27.75;;;;;7.94;69.76;102261.03;5056447;28;45331;-73
2022/01/19 16:05:43;;;;;;;;;23.75;21.25;;;;;7.93;70.16;102255.69;5056334;28;46006;-73
2022/01/19 16:08:10;;;;;;;;;33.75;24.75;;;;;8.04;70.19;102258.25;5056335;28;45330;-72
2022/01/19 16:10:38;;;;;;;;;26.75;24.25;;;;;8.12;69.48;102265.28;5056398;28;45390;-73
2022/01/19 16:13:04;;;;;;;;;36.25;28.50;;;;;8.11;69.03;102265.28;5056377;28;45284;-74
2022/01/19 16:15:29;;;;;;;;;28.75;25.50;;;;;8.02;69.61;102270.72;5055747;28;45291;-73
2022/01/19 16:17:55;;;;;;;;;24.75;24.75;;;;;7.90;69.43;102258.41;5056886;28;45292;-72
2022/01/19 16:20:21;;;;;;;;;37.00;27.75;;;;;7.93;69.79;102266.38;5056653;28;45720;-73
2022/01/19 16:28:16;;;;;;;;;36.50;27.25;;;;;7.96;69.87;102277.03;5056134;28;45489;-73
2022/01/19 16:30:41;;;;;;;;;31.25;28.75;;;;;7.83;70.17;102270.03;5055423;28;45567;-76
2022/01/19 16:33:08;;;;;;;;;24.75;21.50;;;;;7.88;70.57;102273.56;5056120;28;45279;-76
2022/01/19 16:35:33;;;;;;;;;43.50;30.25;;;;;7.84;70.05;102282.50;5056341;28;46264;-75
2022/01/19 16:37:59;;;;;;;;;41.00;30.25;;;;;7.81;70.23;102295.91;5056542;28;45516;-73
2022/01/19 16:40:28;;;;;;;;;34.75;29.75;;;;;7.77;70.58;102278.13;5055825;28;45279;-75
2022/01/19 16:42:57;;;;;;;;;31.00;24.25;;;;;7.82;70.36;102274.53;5055599;28;45310;-73
2022/01/19 16:45:23;;;;;;;;;33.50;28.50;;;;;7.85;70.76;102287.81;5055637;28;46651;-72
2022/01/19 16:47:54;;;;;;;;;30.25;28.00;;;;;7.89;70.67;102280.69;5055325;28;45413;-72
2022/01/19 16:50:20;;;;;;;;;35.75;29.50;;;;;8.01;69.81;102295.66;5055835;28;45224;-74
2022/01/19 16:52:45;;;;;;;;;36.00;30.00;;;;;7.91;70.27;102281.56;5055421;28;45450;-73
2022/01/19 16:55:11;;;;;;;;;31.25;27.00;;;;;7.86;70.11;102275.34;5055763;28;46038;-73
2022/01/19 16:57:37;;;;;;;;;39.75;33.00;;;;;7.93;70.32;102285.97;5055841;28;45248;-72
2022/01/19 17:00:05;;;;;;;;;37.50;30.50;;;;;7.86;70.63;102280.69;5055437;28;45371;-75
2022/01/19 17:02:31;;;;;;;;;36.75;32.25;;;;;7.77;71.21;102286.13;5054767;28;45467;-75
2022/01/19 17:04:56;;;;;;;;;30.00;25.25;;;;;7.79;71.92;102285.22;5055439;28;46202;-71
2022/01/19 17:07:21;;;;;;;;;25.25;24.75;;;;;7.81;71.97;102274.53;5055219;28;45300;-71
2022/01/19 17:09:47;;;;;;;;;37.00;30.25;;;;;7.95;71.52;102285.94;5067513;28;45454;-73
2022/01/19 17:12:18;;;;;;;;;42.50;31.00;;;;;7.92;70.87;102294.88;5056667;28;45707;-72
2022/01/19 17:14:43;;;;;;;;;34.00;31.25;;;;;7.91;71.29;102308.25;5036847;28;46190;-72